Time;durP1;ratioP1;P1;durP2;ratioP2;P2;SDS_P1;SDS_P2;PMS_P1;PMS_P2;Temp;Humidity;BMP_temperature;BMP_pressure;BME280_temperature;BME280_humidity;BME280_pressure;Samples;Min_cycle;Max_cycle;Signal;HPM_P1;HPM_P2
2021/11/13 00:00:46;;;;;;;24.40;16.24;;;;;;;2.81;93.29;99333.09;2036067;79;23173;-78
2021/11/13 00:03:48;;;;;;;25.98;16.27;;;;;;;2.79;93.26;99318.50;2036392;79;20330;-77
2021/11/13 00:06:51;;;;;;;23.10;15.38;;;;;;;2.80;93.40;99313.41;2037886;79;20394;-77
2021/11/13 00:09:53;;;;;;;24.56;16.19;;;;;;;2.82;93.29;99308.31;2037146;79;20329;-78
2021/11/13 00:12:59;;;;;;;22.46;14.63;;;;;;;2.81;93.15;99304.03;2036965;79;20462;-77
2021/11/13 00:16:01;;;;;;;25.51;16.56;;;;;;;2.79;93.17;99303.13;2035448;76;22487;-77
2021/11/13 00:19:04;;;;;;;21.86;15.50;;;;;;;2.76;93.13;99311.59;2036851;79;20426;-78
2021/11/13 00:22:07;;;;;;;25.34;14.76;;;;;;;2.76;93.22;99300.47;2036670;79;20801;-77
2021/11/13 00:25:10;;;;;;;28.19;15.49;;;;;;;2.75;93.28;99284.22;2037865;79;20327;-78
2021/11/13 00:28:13;;;;;;;20.40;14.66;;;;;;;2.75;93.31;99285.94;2036186;79;20309;-78
2021/11/13 00:31:15;;;;;;;22.13;14.79;;;;;;;2.72;93.22;99291.84;2028208;76;22181;-78
2021/11/13 00:34:18;;;;;;;23.09;15.45;;;;;;;2.70;93.25;99293.50;2081953;69;20373;-78
2021/11/13 00:37:21;;;;;;;21.44;14.49;;;;;;;2.69;93.29;99299.44;1999313;81;20966;-78
2021/11/13 00:40:24;;;;;;;31.59;14.69;;;;;;;2.72;93.39;99294.41;2001090;81;20325;-78
2021/11/13 00:43:30;;;;;;;22.39;15.46;;;;;;;2.71;93.27;99287.56;1999923;81;20713;-77
2021/11/13 00:46:33;;;;;;;23.21;16.35;;;;;;;2.69;93.40;99281.50;1999079;80;22723;-78
2021/11/13 00:49:36;;;;;;;24.59;14.85;;;;;;;2.70;93.60;99279.00;1999888;80;20386;-77
2021/11/13 00:52:39;;;;;;;22.14;14.66;;;;;;;2.71;93.63;99288.44;2000226;81;21373;-78
2021/11/13 00:55:42;;;;;;;21.35;15.31;;;;;;;2.70;93.68;99296.94;1999093;80;20341;-78
2021/11/13 00:58:47;;;;;;;20.81;14.86;;;;;;;2.71;93.70;99297.81;1998512;80;20889;-78
2021/11/13 01:01:49;;;;;;;19.74;12.84;;;;;;;2.69;93.65;99294.31;1993612;77;20489;-78
2021/11/13 01:04:52;;;;;;;22.74;13.30;;;;;;;2.60;93.28;99288.97;1994368;81;21474;-78
2021/11/13 01:07:55;;;;;;;18.88;13.18;;;;;;;2.51;93.53;99298.97;1993008;80;20315;-78
2021/11/13 01:10:57;;;;;;;18.88;13.31;;;;;;;2.45;93.78;99293.69;1994373;80;20432;-78
2021/11/13 01:14:00;;;;;;;17.17;13.10;;;;;;;2.46;94.03;99298.84;2011543;80;20406;-78
2021/11/13 01:17:06;;;;;;;19.42;13.21;;;;;;;2.46;94.03;99291.16;1995619;77;57527;-78
2021/11/13 01:20:11;;;;;;;19.67;13.20;;;;;;;2.48;93.97;99291.22;1998141;80;20322;-78
2021/11/13 01:23:14;;;;;;;19.52;13.90;;;;;;;2.41;93.71;99295.31;1998927;81;20385;-78
2021/11/13 01:26:17;;;;;;;19.33;13.61;;;;;;;2.39;93.83;99296.97;1998642;80;20394;-78
2021/11/13 01:29:19;;;;;;;17.67;13.04;;;;;;;2.42;94.09;99297.03;1998895;81;20352;-78
2021/11/13 01:32:22;;;;;;;19.04;13.57;;;;;;;2.42;94.09;99289.38;1997739;78;22527;-78
2021/11/13 01:35:26;;;;;;;19.80;13.25;;;;;;;2.48;94.07;99286.09;1999337;80;20342;-78
2021/11/13 01:38:29;;;;;;;18.95;12.57;;;;;;;2.48;93.93;99294.63;1998958;80;20321;-78
2021/11/13 01:41:32;;;;;;;17.80;12.75;;;;;;;2.50;93.96;99286.97;1998369;80;20353;-78
2021/11/13 01:44:35;;;;;;;19.02;13.04;;;;;;;2.52;93.97;99287.91;1999733;80;20330;-78
2021/11/13 01:47:39;;;;;;;17.95;12.88;;;;;;;2.55;93.91;99299.13;1992865;77;21051;-78
2021/11/13 01:50:44;;;;;;;19.75;13.11;;;;;;;2.54;93.80;99306.75;1994806;80;20347;-78
2021/11/13 01:53:48;;;;;;;17.34;13.20;;;;;;;2.54;93.91;99294.81;1994667;80;20711;-78
2021/11/13 01:56:52;;;;;;;18.14;12.85;;;;;;;2.58;93.86;99288.06;1993988;81;21023;-78
2021/11/13 01:59:55;;;;;;;15.99;12.26;;;;;;;2.61;93.80;99286.44;1993389;80;20347;-78
2021/11/13 02:02:58;;;;;;;17.46;12.69;;;;;;;2.63;93.68;99281.34;1997340;77;24621;-78
2021/11/13 02:06:01;;;;;;;18.51;12.07;;;;;;;2.67;93.54;99288.28;1997719;80;20561;-78
2021/11/13 02:09:06;;;;;;;16.49;11.90;;;;;;;2.65;93.36;99288.25;1999200;80;20372;-78
2021/11/13 02:12:09;;;;;;;17.67;12.06;;;;;;;2.65;93.32;99287.38;2013496;80;21275;-78
2021/11/13 02:15:12;;;;;;;16.52;11.51;;;;;;;2.66;93.28;99286.56;1998409;80;20351;-78
2021/11/13 02:18:15;;;;;;;19.01;12.74;;;;;;;2.65;93.22;99285.69;1998637;77;21007;-78
2021/11/13 02:21:19;;;;;;;15.60;11.20;;;;;;;2.66;93.08;99281.44;2011879;80;20844;-78
2021/11/13 02:24:22;;;;;;;16.41;11.50;;;;;;;2.64;92.95;99273.69;2002262;80;20367;-78
2021/11/13 02:27:24;;;;;;;18.02;11.56;;;;;;;2.61;92.79;99271.06;1998183;80;20322;-78
2021/11/13 02:30:28;;;;;;;17.76;11.54;;;;;;;2.56;92.92;99264.09;1998704;78;21972;-78
2021/11/13 02:33:31;;;;;;;18.05;11.44;;;;;;;2.58;93.03;99265.88;2012032;80;20348;-78
2021/11/13 02:36:35;;;;;;;16.06;11.23;;;;;;;2.65;93.12;99246.38;1998988;80;20359;-78
2021/11/13 02:39:37;;;;;;;14.63;10.30;;;;;;;2.70;93.06;99247.38;1998727;80;20343;-78
2021/11/13 02:42:41;;;;;;;16.90;10.79;;;;;;;2.73;92.97;99234.63;1998922;80;20334;-78
2021/11/13 02:45:45;;;;;;;15.15;10.57;;;;;;;2.74;92.77;99244.03;1995821;77;23581;-78
2021/11/13 02:48:48;;;;;;;13.88;10.16;;;;;;;2.74;92.64;99236.34;1993446;80;20315;-78
2021/11/13 02:51:51;;;;;;;14.01;9.50;;;;;;;2.78;92.66;99250.09;1995063;80;20379;-78
2021/11/13 02:54:54;;;;;;;11.13;9.54;;;;;;;2.75;92.42;99239.78;2012159;80;21258;-78
2021/11/13 02:57:57;;;;;;;11.63;8.94;;;;;;;2.77;92.36;99240.69;1994374;80;20322;-78
2021/11/13 03:01:03;;;;;;;12.07;9.04;;;;;;;2.77;92.32;99230.44;1992668;77;22655;-78
2021/11/13 03:04:06;;;;;;;12.26;8.57;;;;;;;2.81;92.44;99232.22;1994358;80;20399;-78
2021/11/13 03:07:09;;;;;;;10.61;8.60;;;;;;;2.84;92.41;99234.88;1994366;80;20380;-78
2021/11/13 03:10:13;;;;;;;10.80;8.54;;;;;;;2.88;92.34;99231.56;1993902;80;20349;-78
2021/11/13 03:13:16;;;;;;;11.09;8.60;;;;;;;2.91;92.23;99234.19;2011781;80;20319;-78
2021/11/13 03:16:20;;;;;;;9.46;8.25;;;;;;;2.96;92.20;99240.28;1996443;77;22256;-78
2021/11/13 03:19:23;;;;;;;11.51;8.19;;;;;;;2.99;92.22;99240.34;2000691;80;20337;-78
2021/11/13 03:22:26;;;;;;;8.96;7.91;;;;;;;3.02;92.12;99245.53;2000575;81;20342;-78
2021/11/13 03:25:37;;;;;;;8.39;7.47;;;;;;;3.04;92.07;99233.63;2000103;80;20390;-78
2021/11/13 03:28:43;;;;;;;10.13;7.86;;;;;;;3.06;91.93;99241.38;1999933;80;20390;-78
2021/11/13 03:31:47;;;;;;;9.64;7.72;;;;;;;3.07;91.89;99231.16;1995884;77;22576;-78
2021/11/13 03:34:50;;;;;;;10.64;8.25;;;;;;;3.06;91.78;99233.69;1993304;81;20336;-75
2021/11/13 03:37:59;;;;;;;8.95;7.95;;;;;;;3.07;91.86;99215.75;1992252;80;20364;-75
2021/11/13 03:41:02;;;;;;;10.96;8.00;;;;;;;3.11;91.84;99219.25;1992096;80;20335;-76
2021/11/13 03:44:05;;;;;;;8.85;7.76;;;;;;;3.14;91.89;99216.75;1992820;80;20183;-76
2021/11/13 03:47:07;;;;;;;8.80;7.80;;;;;;;3.15;92.07;99205.66;2004688;77;24308;-76
2021/11/13 03:50:10;;;;;;;8.46;7.65;;;;;;;3.17;92.19;99206.56;1993310;80;20322;-76
2021/11/13 03:53:13;;;;;;;8.50;7.60;;;;;;;3.19;92.22;99197.19;1994645;80;21194;-77
2021/11/13 03:56:16;;;;;;;8.05;7.25;;;;;;;3.21;92.20;99195.53;1993679;81;20434;-76
2021/11/13 03:59:22;;;;;;;8.71;7.78;;;;;;;3.24;92.14;99193.06;1992894;80;20442;-77
2021/11/13 04:02:25;;;;;;;11.11;7.94;;;;;;;3.24;92.19;99193.06;1995634;77;20771;-76
2021/11/13 04:05:28;;;;;;;8.23;7.43;;;;;;;3.25;92.18;99195.66;1997021;81;20435;-77
2021/11/13 04:08:30;;;;;;;8.10;7.29;;;;;;;3.27;92.28;99193.13;1997243;81;20369;-76
2021/11/13 04:11:33;;;;;;;8.50;7.59;;;;;;;3.29;92.30;99194.88;1997486;80;20931;-77
2021/11/13 04:14:39;;;;;;;7.95;7.00;;;;;;;3.33;92.34;99193.22;1996829;80;20415;-76
2021/11/13 04:17:44;;;;;;;7.85;7.05;;;;;;;3.36;92.27;99195.84;1991610;77;20444;-77
2021/11/13 04:20:47;;;;;;;8.45;7.53;;;;;;;3.40;92.25;99189.94;1991861;80;20715;-77
2021/11/13 04:23:51;;;;;;;7.70;6.94;;;;;;;3.43;92.31;99192.59;1991667;80;20847;-77
2021/11/13 04:26:54;;;;;;;9.09;7.51;;;;;;;3.45;92.38;99185.81;1991344;81;20392;-76
2021/11/13 04:29:57;;;;;;;8.21;7.31;;;;;;;3.49;92.40;99195.28;1992254;80;20419;-77
2021/11/13 04:33:00;;;;;;;8.68;7.76;;;;;;;3.50;92.48;99189.31;1995791;77;21875;-76
2021/11/13 04:36:09;;;;;;;7.70;6.95;;;;;;;3.53;92.52;99184.25;2000268;81;20349;-77
2021/11/13 04:39:12;;;;;;;9.63;7.47;;;;;;;3.55;92.49;99174.88;1997197;80;20449;-77
2021/11/13 04:42:18;;;;;;;8.38;7.56;;;;;;;3.57;92.45;99172.31;1997209;81;20236;-77
2021/11/13 04:45:21;;;;;;;9.11;7.61;;;;;;;3.59;92.46;99170.66;1995451;77;27351;-77
2021/11/13 04:48:24;;;;;;;8.31;7.24;;;;;;;3.58;92.46;99162.09;1997598;81;20389;-76
2021/11/13 04:51:27;;;;;;;8.48;7.54;;;;;;;3.60;92.49;99163.00;1997977;81;20818;-77
2021/11/13 04:54:30;;;;;;;9.61;8.04;;;;;;;3.64;92.54;99166.50;1998923;80;20394;-77
2021/11/13 04:57:32;;;;;;;8.11;7.09;;;;;;;3.64;92.55;99151.97;1996909;81;20325;-77
2021/11/13 05:00:35;;;;;;;9.16;8.16;;;;;;;3.63;92.60;99152.78;1995710;77;21179;-77
2021/11/13 05:03:38;;;;;;;9.19;8.21;;;;;;;3.68;92.71;99154.56;1998063;80;20337;-77
2021/11/13 05:06:41;;;;;;;8.10;7.30;;;;;;;3.70;92.78;99147.75;1996850;81;20790;-77
2021/11/13 05:09:43;;;;;;;8.20;7.39;;;;;;;3.73;92.90;99147.81;1997807;80;20326;-77
2021/11/13 05:12:47;;;;;;;9.04;7.50;;;;;;;3.74;92.92;99152.13;1997874;81;20349;-77
2021/11/13 05:15:50;;;;;;;9.14;8.15;;;;;;;3.73;92.93;99140.97;1994430;77;28128;-77
2021/11/13 05:18:53;;;;;;;9.49;7.84;;;;;;;3.72;93.02;99144.38;1992187;80;20315;-77
2021/11/13 05:21:55;;;;;;;8.66;7.75;;;;;;;3.76;93.16;99150.44;1992398;80;20338;-77
2021/11/13 05:24:58;;;;;;;9.36;8.34;;;;;;;3.79;93.18;99147.94;1992282;80;21105;-77
2021/11/13 05:28:00;;;;;;;9.61;8.55;;;;;;;3.81;93.26;99138.56;1991871;80;20322;-78
2021/11/13 05:31:04;;;;;;;11.43;8.10;;;;;;;3.85;93.37;99140.34;1992887;78;20429;-78
2021/11/13 05:34:06;;;;;;;9.05;8.04;;;;;;;3.86;93.39;99124.97;2017562;80;20320;-77
2021/11/13 05:37:09;;;;;;;9.98;7.96;;;;;;;3.90;93.36;99128.44;2017798;80;20305;-77
2021/11/13 05:40:12;;;;;;;9.05;8.14;;;;;;;3.92;93.32;99135.34;2018145;80;20305;-77
2021/11/13 05:43:15;;;;;;;10.88;8.91;;;;;;;3.93;93.39;99151.63;2018451;80;20312;-77
2021/11/13 05:46:17;;;;;;;9.35;8.31;;;;;;;3.92;93.59;99149.88;2014127;77;22378;-77
2021/11/13 05:49:21;;;;;;;10.60;8.73;;;;;;;3.94;93.68;99141.38;2016361;80;20326;-77
2021/11/13 05:52:24;;;;;;;9.74;7.94;;;;;;;3.97;93.75;99155.13;2016931;80;20379;-77
2021/11/13 05:55:27;;;;;;;11.38;8.51;;;;;;;3.97;93.83;99153.44;2014215;80;20357;-77
2021/11/13 05:58:29;;;;;;;10.06;8.57;;;;;;;3.96;94.11;99158.53;2017107;80;20376;-78
2021/11/13 06:01:33;;;;;;;10.40;8.76;;;;;;;3.99;94.32;99158.59;2012644;77;26106;-78
2021/11/13 06:04:40;;;;;;;10.59;8.86;;;;;;;4.02;94.37;99151.78;2013716;80;20345;-77
2021/11/13 06:07:42;;;;;;;11.43;9.30;;;;;;;4.06;94.37;99166.41;2012659;80;20322;-77
2021/11/13 06:10:45;;;;;;;14.39;9.86;;;;;;;4.09;94.42;99158.75;2012913;80;20518;-77
2021/11/13 06:13:48;;;;;;;13.13;9.29;;;;;;;4.13;94.37;99159.66;2015907;80;20318;-77
2021/11/13 06:16:50;;;;;;;10.11;8.55;;;;;;;4.16;94.38;99157.19;2012127;77;22792;-77
2021/11/13 06:19:53;;;;;;;12.86;8.89;;;;;;;4.19;94.38;99152.09;2012651;80;20322;-77
2021/11/13 06:22:57;;;;;;;14.86;8.61;;;;;;;4.21;94.37;99160.69;2013142;80;20291;-78
2021/11/13 06:26:00;;;;;;;10.16;8.99;;;;;;;4.21;94.58;99169.25;2017056;80;20318;-77
2021/11/13 06:29:03;;;;;;;10.69;8.41;;;;;;;4.24;94.74;99161.59;2013149;80;20326;-77
2021/11/13 06:32:06;;;;;;;10.90;8.98;;;;;;;4.27;94.69;99163.34;2016299;77;24051;-77
2021/11/13 06:35:10;;;;;;;10.90;9.00;;;;;;;4.30;94.71;99165.97;2003477;80;20398;-78
2021/11/13 06:38:12;;;;;;;9.84;8.74;;;;;;;4.34;94.69;99154.06;2011510;80;20954;-77
2021/11/13 06:41:15;;;;;;;12.91;9.10;;;;;;;4.36;94.69;99158.38;1997912;80;20317;-77
2021/11/13 06:44:19;;;;;;;11.46;9.02;;;;;;;4.38;94.66;99159.25;1997665;81;20379;-77
2021/11/13 06:47:22;;;;;;;10.52;8.88;;;;;;;4.41;94.77;99166.16;2009723;78;20874;-77
2021/11/13 06:50:24;;;;;;;13.61;9.21;;;;;;;4.43;94.83;99160.19;1997502;80;20375;-77
2021/11/13 06:53:27;;;;;;;11.15;9.36;;;;;;;4.46;94.90;99167.94;1998411;81;20405;-77
2021/11/13 06:56:29;;;;;;;14.56;9.52;;;;;;;4.49;94.91;99164.59;1997659;80;20382;-77
2021/11/13 06:59:33;;;;;;;12.24;9.15;;;;;;;4.51;94.90;99161.19;1997760;81;20309;-78
2021/11/13 07:02:37;;;;;;;15.16;9.50;;;;;;;4.55;94.86;99157.84;1992179;77;22582;-77
2021/11/13 07:05:44;;;;;;;12.46;9.99;;;;;;;4.57;94.96;99173.28;2006266;80;20331;-77
2021/11/13 07:09:13;;;;;;;13.49;9.21;;;;;;;4.59;95.06;99176.75;1995878;80;20873;-78
2021/11/13 07:12:22;;;;;;;11.48;9.13;;;;;;;4.62;95.12;99175.91;1995016;81;20800;-78
2021/11/13 07:15:46;;;;;;;10.71;8.90;;;;;;;4.66;95.14;99169.97;2009662;80;20373;-78
2021/11/13 07:19:10;;;;;;;12.18;9.41;;;;;;;4.69;95.08;99176.06;1998975;81;20330;-78
2021/11/13 07:22:26;;;;;;;10.99;8.76;;;;;;;4.72;94.95;99190.66;1998632;81;20506;-77
2021/11/13 07:25:29;;;;;;;13.41;9.27;;;;;;;4.74;94.82;99184.69;1998122;81;20733;-77
2021/11/13 07:31:45;;;;;;;12.95;8.76;;;;;;;4.80;94.73;99189.91;1996903;81;20806;-77
2021/11/13 07:34:53;;;;;;;10.79;9.07;;;;;;;4.82;94.72;99195.94;1993566;81;20349;-78
2021/11/13 07:37:58;;;;;;;12.86;9.41;;;;;;;4.85;94.69;99193.44;1998322;81;20202;-78
2021/11/13 07:41:02;;;;;;;13.21;9.01;;;;;;;4.89;94.68;99191.78;1999490;81;20421;-78
2021/11/13 07:44:05;;;;;;;11.96;9.15;;;;;;;4.93;94.61;99188.41;1999385;81;20362;-78
2021/11/13 07:47:08;;;;;;;13.46;9.09;;;;;;;4.96;94.53;99185.00;1997258;79;26080;-78
2021/11/13 07:50:13;;;;;;;16.08;9.84;;;;;;;4.97;94.44;99194.47;2007906;80;20399;-79
2021/11/13 07:53:21;;;;;;;15.45;9.38;;;;;;;4.98;94.74;99188.47;2018311;80;20419;-78
2021/11/13 07:56:32;;;;;;;11.85;9.40;;;;;;;5.01;94.85;99184.22;2013651;80;20334;-78
2021/11/13 07:59:46;;;;;;;12.07;9.49;;;;;;;5.07;94.99;99186.03;2013869;80;20356;-78
2021/11/13 08:03:06;;;;;;;18.00;10.21;;;;;;;5.14;95.12;99181.00;2014822;80;20851;-79
2021/11/13 08:06:22;;;;;;;14.90;10.11;;;;;;;5.23;95.16;99192.28;2015023;80;20422;-78
2021/11/13 08:09:25;;;;;;;12.75;9.76;;;;;;;5.28;95.22;99191.47;2017009;80;20811;-79
2021/11/13 08:12:36;;;;;;;18.31;9.81;;;;;;;5.34;95.27;99193.25;2015077;80;21263;-79
2021/11/13 08:15:40;;;;;;;13.65;10.18;;;;;;;5.41;95.32;99201.09;2013455;80;20322;-79
2021/11/13 08:18:42;;;;;;;13.94;10.32;;;;;;;5.49;95.38;99195.19;2015171;80;20314;-78
2021/11/13 08:21:54;;;;;;;14.29;10.70;;;;;;;5.58;95.39;99203.03;2014841;80;20352;-79
2021/11/13 08:25:00;;;;;;;14.20;10.49;;;;;;;5.59;95.30;99194.47;2003876;80;20357;-79
2021/11/13 08:28:25;;;;;;;13.29;10.35;;;;;;;5.63;95.49;99193.63;2012461;80;20307;-79
2021/11/13 08:31:30;;;;;;;14.93;10.25;;;;;;;5.69;95.59;99186.84;1997262;78;20948;-78
2021/11/13 08:34:35;;;;;;;15.54;10.40;;;;;;;5.76;95.66;99187.78;1991010;81;20531;-78
2021/11/13 08:37:39;;;;;;;19.09;11.50;;;;;;;5.83;95.79;99183.56;1982281;81;21009;-78
2021/11/13 08:40:42;;;;;;;14.96;11.41;;;;;;;5.90;95.76;99188.81;1980920;82;20346;-78
2021/11/13 08:43:49;;;;;;;12.69;9.76;;;;;;;5.96;95.74;99178.59;1980740;81;20378;-78
2021/11/13 08:46:55;;;;;;;12.76;10.13;;;;;;;6.03;95.52;99182.09;1979763;79;26267;-78
2021/11/13 08:49:59;;;;;;;12.18;10.00;;;;;;;6.09;95.52;99170.97;1983143;81;20409;-78
2021/11/13 08:53:04;;;;;;;14.75;9.55;;;;;;;6.18;95.56;99166.78;1984200;80;20375;-78
2021/11/13 08:56:06;;;;;;;11.14;9.45;;;;;;;6.28;95.47;99167.72;1983113;81;20321;-78
2021/11/13 08:59:10;;;;;;;14.29;9.77;;;;;;;6.35;95.58;99172.97;1984266;81;20329;-78
2021/11/13 09:02:18;;;;;;;13.64;9.73;;;;;;;6.44;95.60;99168.72;1986635;77;24217;-79
2021/11/13 09:05:21;;;;;;;12.16;10.44;;;;;;;6.54;95.72;99167.97;1988347;80;20467;-78
2021/11/13 09:08:24;;;;;;;13.31;9.35;;;;;;;6.63;95.73;99165.44;1988407;81;20656;-78
2021/11/13 09:11:31;;;;;;;13.41;9.19;;;;;;;6.69;95.73;99167.22;1987747;80;20316;-78
2021/11/13 09:14:34;;;;;;;11.50;9.02;;;;;;;6.78;95.84;99159.53;1986581;81;20853;-78
2021/11/13 09:17:37;;;;;;;10.34;8.79;;;;;;;6.90;95.95;99151.88;1985843;80;20408;-78
2021/11/13 09:20:41;;;;;;;12.57;8.48;;;;;;;7.03;96.00;99150.25;1987256;80;20401;-78
2021/11/13 09:23:44;;;;;;;10.41;7.99;;;;;;;7.20;96.24;99148.63;1989913;81;20348;-78
2021/11/13 09:26:48;;;;;;;12.64;7.81;;;;;;;7.37;96.36;99148.69;1987451;81;20329;-78
2021/11/13 09:29:51;;;;;;;8.79;7.06;;;;;;;7.58;96.69;99147.06;1988133;81;20741;-78
2021/11/13 09:32:54;;;;;;;11.75;7.47;;;;;;;7.80;96.89;99152.28;1986817;77;24403;-79
2021/11/13 09:35:58;;;;;;;8.14;6.84;;;;;;;8.01;96.76;99149.75;2017405;80;20386;-78
2021/11/13 09:39:01;;;;;;;6.93;5.70;;;;;;;8.24;96.52;99141.16;2018776;80;20330;-79
2021/11/13 09:42:04;;;;;;;6.64;5.26;;;;;;;8.40;96.30;99146.38;2018754;80;20369;-78
2021/11/13 09:45:07;;;;;;;9.30;6.09;;;;;;;8.53;95.59;99144.66;2017470;80;20809;-79
2021/11/13 09:48:09;;;;;;;9.27;5.47;;;;;;;8.53;94.56;99152.41;2012970;77;22810;-78
2021/11/13 09:51:12;;;;;;;6.97;4.89;;;;;;;8.53;94.25;99143.81;2013629;80;20325;-78
2021/11/13 09:54:16;;;;;;;8.57;5.24;;;;;;;8.46;93.48;99145.53;2017571;80;20326;-78
2021/11/13 09:57:19;;;;;;;6.22;5.24;;;;;;;8.46;93.58;99141.22;2013888;80;20357;-79
2021/11/13 10:00:26;;;;;;;5.74;4.78;;;;;;;8.47;93.40;99140.34;2015499;78;23573;-79
2021/11/13 10:03:29;;;;;;;5.64;5.09;;;;;;;8.51;93.50;99140.34;2015322;80;20322;-79
2021/11/13 10:06:32;;;;;;;13.71;10.11;;;;;;;8.58;93.55;99139.47;2015392;80;20489;-79
2021/11/13 10:09:34;;;;;;;46.40;32.66;;;;;;;8.66;93.49;99142.94;2015346;80;20326;-79
2021/11/13 10:12:39;;;;;;;9.52;8.35;;;;;;;8.73;93.28;99142.91;2010479;80;20466;-79
2021/11/13 10:15:42;;;;;;;12.20;9.52;;;;;;;8.77;92.82;99139.44;2013849;77;22712;-79
2021/11/13 10:18:51;;;;;;;11.45;6.30;;;;;;;8.87;92.68;99131.69;2014100;80;20376;-79
2021/11/13 10:22:02;;;;;;;8.30;5.90;;;;;;;8.90;92.21;99137.72;2014049;80;20318;-78
2021/11/13 10:25:13;;;;;;;8.06;5.89;;;;;;;8.88;91.99;99129.09;2013904;80;20318;-79
2021/11/13 10:28:16;;;;;;;7.00;5.55;;;;;;;8.85;91.70;99125.66;2014107;80;20336;-79
2021/11/13 10:31:23;;;;;;;6.76;4.74;;;;;;;8.79;91.50;99121.31;2015912;78;32374;-79
2021/11/13 10:34:34;;;;;;;6.28;5.19;;;;;;;8.72;91.53;99115.31;2012093;80;21371;-79
2021/11/13 10:37:49;;;;;;;5.39;4.89;;;;;;;8.77;91.89;99123.06;2016110;80;20396;-79
2021/11/13 10:40:56;;;;;;;7.40;4.51;;;;;;;8.83;91.74;99115.31;2020308;80;20314;-79
2021/11/13 10:43:59;;;;;;;5.55;4.22;;;;;;;8.89;91.93;99112.69;2021107;80;20838;-79
2021/11/13 10:47:23;;;;;;;4.68;4.28;;;;;;;8.97;91.94;99108.34;2014457;77;33101;-80
2021/11/13 10:50:26;;;;;;;4.03;3.72;;;;;;;9.02;91.77;99100.59;2018703;80;20309;-79
2021/11/13 10:53:31;;;;;;;5.32;4.10;;;;;;;9.01;91.75;99110.09;2020959;80;20195;-79
2021/11/13 10:56:47;;;;;;;5.93;4.06;;;;;;;8.99;91.39;99113.53;2020965;80;20335;-79
2021/11/13 10:59:49;;;;;;;4.13;3.71;;;;;;;8.97;91.59;99113.53;2019288;80;21700;-79
2021/11/13 11:03:06;;;;;;;6.35;4.68;;;;;;;8.94;91.92;99107.50;2014683;77;22495;-79
2021/11/13 11:06:10;;;;;;;5.79;3.96;;;;;;;8.91;91.96;99107.50;2015905;80;20303;-79
2021/11/13 11:09:18;;;;;;;3.99;3.59;;;;;;;8.89;92.16;99102.34;2007866;80;20314;-79
2021/11/13 11:12:22;;;;;;;4.54;4.14;;;;;;;8.88;92.24;99099.75;2011726;80;20411;-79
2021/11/13 11:15:24;;;;;;;4.29;3.90;;;;;;;8.85;92.26;99100.63;2010275;77;21970;-79
2021/11/13 11:18:27;;;;;;;4.94;4.22;;;;;;;8.81;92.22;99095.47;2013023;80;20401;-79
2021/11/13 11:21:49;;;;;;;5.41;4.34;;;;;;;8.82;92.48;99092.00;2017573;80;20455;-77
2021/11/13 11:24:54;;;;;;;5.91;4.00;;;;;;;8.84;92.72;99092.88;2017348;80;20645;-78
2021/11/13 11:27:57;;;;;;;4.30;3.90;;;;;;;8.80;92.74;99086.84;2017960;80;20380;-79
2021/11/13 11:31:00;;;;;;;6.90;4.22;;;;;;;8.81;93.03;99095.47;2017356;77;22175;-79
2021/11/13 11:34:02;;;;;;;5.21;3.74;;;;;;;8.83;93.40;99099.78;2009420;80;21224;-79
2021/11/13 11:37:10;;;;;;;4.74;3.22;;;;;;;8.85;93.46;99102.34;1992972;80;20400;-77
2021/11/13 11:40:44;;;;;;;5.93;3.86;;;;;;;8.83;93.60;99094.59;1994055;81;20322;-79
2021/11/13 11:43:48;;;;;;;4.01;3.50;;;;;;;8.84;93.82;99091.13;1992388;80;20392;-78
2021/11/13 11:46:52;;;;;;;5.57;3.53;;;;;;;8.84;93.80;99098.03;1994333;77;26284;-78
2021/11/13 11:49:57;;;;;;;4.44;3.59;;;;;;;8.76;93.77;99088.53;1998205;80;20347;-77
2021/11/13 11:53:10;;;;;;;4.00;3.29;;;;;;;8.76;93.87;99090.28;1997707;80;20318;-79
2021/11/13 11:56:13;;;;;;;5.05;3.69;;;;;;;8.77;94.20;99092.00;2012069;80;20330;-79
2021/11/13 11:59:16;;;;;;;4.29;3.72;;;;;;;8.79;94.30;99087.69;1998740;81;20425;-78
2021/11/13 12:02:20;;;;;;;3.99;3.63;;;;;;;8.81;94.38;99082.53;2011795;77;28681;-78
2021/11/13 12:05:26;;;;;;;7.57;4.03;;;;;;;8.82;94.33;99094.59;1998759;81;20342;-78
2021/11/13 12:08:29;;;;;;;4.85;3.94;;;;;;;8.81;94.31;99091.16;2000285;80;20386;-77
2021/11/13 12:11:34;;;;;;;6.19;4.10;;;;;;;8.85;94.34;99089.41;2000061;80;20343;-79
2021/11/13 12:14:37;;;;;;;6.57;4.28;;;;;;;8.85;94.45;99082.50;2000267;81;20337;-79
2021/11/13 12:17:40;;;;;;;5.47;3.81;;;;;;;8.88;94.47;99087.66;1998858;77;22399;-79
2021/11/13 12:20:44;;;;;;;5.74;4.28;;;;;;;8.95;94.60;99084.19;2001080;80;20406;-79
2021/11/13 12:23:50;;;;;;;5.36;4.45;;;;;;;9.04;94.44;99084.16;1999814;81;20402;-79
2021/11/13 12:27:01;;;;;;;4.90;3.75;;;;;;;9.17;94.41;99081.53;1999442;80;20427;-79
2021/11/13 12:30:05;;;;;;;4.04;3.55;;;;;;;9.22;94.17;99074.63;1998280;80;20367;-77
2021/11/13 12:33:33;;;;;;;5.82;3.54;;;;;;;9.31;94.41;99075.41;1997885;77;22422;-78
2021/11/13 12:36:59;;;;;;;4.12;3.63;;;;;;;9.39;94.18;99072.81;2018856;80;20329;-78
2021/11/13 12:40:03;;;;;;;3.55;3.15;;;;;;;9.42;93.81;99067.59;2019244;80;20214;-78
2021/11/13 12:43:06;;;;;;;5.45;3.74;;;;;;;9.50;93.53;99064.97;2019344;80;21290;-78
2021/11/13 12:46:35;;;;;;;3.59;2.84;;;;;;;9.56;93.45;99065.81;2018114;77;24933;-78
2021/11/13 12:49:40;;;;;;;4.14;2.91;;;;;;;9.63;93.02;99069.22;2017740;80;20152;-77
2021/11/13 12:52:52;;;;;;;4.24;3.29;;;;;;;9.61;92.59;99061.44;2019897;80;20624;-78
2021/11/13 12:55:55;;;;;;;3.14;2.84;;;;;;;9.62;92.55;99067.50;2019605;80;20209;-78
2021/11/13 12:58:58;;;;;;;5.61;2.99;;;;;;;9.63;92.29;99066.63;2019293;80;20833;-78
2021/11/13 13:02:08;;;;;;;3.81;2.70;;;;;;;9.64;92.25;99071.78;2017173;80;21368;-78
2021/11/13 13:05:20;;;;;;;18.84;10.51;;;;;;;9.65;92.22;99063.16;2018465;80;20197;-78
2021/11/13 13:08:23;;;;;;;9.46;6.15;;;;;;;9.63;92.07;99064.03;2018287;80;20163;-79
2021/11/13 13:11:25;;;;;;;11.11;6.56;;;;;;;9.62;92.25;99070.09;2021746;80;20179;-80
2021/11/13 13:14:33;;;;;;;3.66;3.05;;;;;;;9.62;92.22;99072.69;2021733;80;20192;-79
2021/11/13 13:17:40;;;;;;;5.61;3.73;;;;;;;9.59;92.25;99075.28;2016542;80;20204;-79
2021/11/13 13:20:45;;;;;;;6.14;3.84;;;;;;;9.57;92.47;99070.13;2015356;80;20231;-79
2021/11/13 13:23:48;;;;;;;3.89;2.97;;;;;;;9.60;92.81;99064.06;2013519;80;20261;-79
2021/11/13 13:27:01;;;;;;;3.51;3.11;;;;;;;9.62;92.87;99065.75;2012960;80;20589;-79
2021/11/13 13:30:11;;;;;;;3.46;2.91;;;;;;;9.65;92.99;99068.34;2012834;80;20741;-78
2021/11/13 13:33:15;;;;;;;3.46;2.49;;;;;;;9.64;93.03;99065.75;2014340;80;20194;-79
2021/11/13 13:36:23;;;;;;;4.51;2.79;;;;;;;9.64;93.11;99068.34;2010153;80;20531;-78
2021/11/13 13:39:26;;;;;;;3.43;2.89;;;;;;;9.65;93.17;99060.56;2007120;80;20192;-78
2021/11/13 13:42:37;;;;;;;2.88;2.60;;;;;;;9.68;93.27;99062.25;2013591;80;20279;-79
2021/11/13 13:45:56;;;;;;;3.19;2.89;;;;;;;9.70;93.34;99057.97;2012276;80;21958;-78
2021/11/13 13:49:01;;;;;;;4.51;2.70;;;;;;;9.71;93.43;99067.47;2016884;80;20723;-78
2021/11/13 13:52:08;;;;;;;3.09;2.81;;;;;;;9.73;93.32;99067.44;2014939;80;20204;-77
2021/11/13 13:55:18;;;;;;;2.91;2.71;;;;;;;9.67;93.06;99066.59;2010223;80;20395;-78
2021/11/13 13:58:21;;;;;;;3.17;2.59;;;;;;;9.65;93.33;99067.47;2014094;80;20253;-78
2021/11/13 14:01:28;;;;;;;2.91;2.61;;;;;;;9.64;93.44;99065.75;2012333;80;20310;-78
2021/11/13 14:04:35;;;;;;;2.47;2.30;;;;;;;9.65;93.51;99073.50;2014360;80;20217;-78
2021/11/13 14:07:38;;;;;;;4.68;2.76;;;;;;;9.64;93.59;99069.19;2014157;80;20198;-78
2021/11/13 14:10:55;;;;;;;2.89;2.55;;;;;;;9.63;93.57;99067.47;2012619;80;20315;-78
2021/11/13 14:13:57;;;;;;;3.67;2.97;;;;;;;9.61;93.49;99065.78;2007432;80;20189;-78
2021/11/13 14:17:01;;;;;;;3.15;2.94;;;;;;;9.57;93.60;99070.13;2007050;80;20338;-78
2021/11/13 14:20:16;;;;;;;3.34;2.85;;;;;;;9.56;93.75;99068.41;2001610;80;20393;-78
2021/11/13 14:23:22;;;;;;;4.51;2.66;;;;;;;9.56;93.84;99064.94;2008532;80;21093;-78
2021/11/13 14:26:26;;;;;;;3.21;2.94;;;;;;;9.55;93.82;99066.69;2008786;80;20189;-78
2021/11/13 14:29:29;;;;;;;5.28;2.80;;;;;;;9.55;93.99;99066.69;2008608;80;21252;-78
2021/11/13 14:32:32;;;;;;;3.00;2.80;;;;;;;9.57;93.92;99070.13;2003420;78;32963;-79
2021/11/13 14:35:36;;;;;;;3.94;2.92;;;;;;;9.56;94.06;99067.53;2007190;80;20335;-78